sensor_id;sensor_type;location;lat;lon;timestamp;pressure;altitude;pressure_sealevel;temperature;humidity
47785;BME280;35233;55.686;37.848;2023-02-22T00:00:16;98438.28;;;4.71;35.64
47785;BME280;35233;55.686;37.848;2023-02-22T00:02:54;98442.09;;;4.58;35.89
47785;BME280;35233;55.686;37.848;2023-02-22T00:05:26;98444.72;;;4.58;35.84
47785;BME280;35233;55.686;37.848;2023-02-22T00:07:53;98443.97;;;4.52;35.37
47785;BME280;35233;55.686;37.848;2023-02-22T00:10:22;98461.19;;;4.61;36.00
47785;BME280;35233;55.686;37.848;2023-02-22T00:12:50;98461.28;;;4.57;35.97
47785;BME280;35233;55.686;37.848;2023-02-22T00:15:19;98464.78;;;4.57;35.29
47785;BME280;35233;55.686;37.848;2023-02-22T00:17:45;98467.28;;;4.62;35.86
47785;BME280;35233;55.686;37.848;2023-02-22T00:20:12;98479.59;;;4.57;35.18
47785;BME280;35233;55.686;37.848;2023-02-22T00:22:40;98478.03;;;4.49;35.64
47785;BME280;35233;55.686;37.848;2023-02-22T00:25:06;98470.13;;;4.52;35.88
47785;BME280;35233;55.686;37.848;2023-02-22T00:27:31;98484.03;;;4.53;35.10
47785;BME280;35233;55.686;37.848;2023-02-22T00:29:57;98486.84;;;4.45;35.77
47785;BME280;35233;55.686;37.848;2023-02-22T00:32:23;98479.06;;;4.42;35.44
47785;BME280;35233;55.686;37.848;2023-02-22T00:34:52;98493.88;;;4.42;35.60
47785;BME280;35233;55.686;37.848;2023-02-22T00:37:19;98495.63;;;4.41;35.47
47785;BME280;35233;55.686;37.848;2023-02-22T00:39:48;98500.03;;;4.39;35.95
47785;BME280;35233;55.686;37.848;2023-02-22T00:42:16;98498.31;;;4.38;35.55
47785;BME280;35233;55.686;37.848;2023-02-22T00:44:42;98498.59;;;4.26;35.61
47785;BME280;35233;55.686;37.848;2023-02-22T00:47:08;98509.81;;;4.31;35.50
47785;BME280;35233;55.686;37.848;2023-02-22T00:49:33;98513.34;;;4.28;35.59
47785;BME280;35233;55.686;37.848;2023-02-22T00:51:59;98504.66;;;4.28;35.66
47785;BME280;35233;55.686;37.848;2023-02-22T00:54:25;98522.91;;;4.31;34.96
47785;BME280;35233;55.686;37.848;2023-02-22T00:56:50;98523.81;;;4.27;35.04
47785;BME280;35233;55.686;37.848;2023-02-22T00:59:16;98516.81;;;4.30;35.61
47785;BME280;35233;55.686;37.848;2023-02-22T01:01:42;98512.59;;;4.23;35.84
47785;BME280;35233;55.686;37.848;2023-02-22T01:04:08;98510.81;;;4.24;35.82
47785;BME280;35233;55.686;37.848;2023-02-22T01:06:34;98520.47;;;4.22;35.19
47785;BME280;35233;55.686;37.848;2023-02-22T01:09:01;98519.63;;;4.20;35.40
47785;BME280;35233;55.686;37.848;2023-02-22T01:11:27;98524.88;;;4.18;34.91
47785;BME280;35233;55.686;37.848;2023-02-22T01:13:53;98532.91;;;4.09;35.28
47785;BME280;35233;55.686;37.848;2023-02-22T01:16:20;98540.03;;;4.01;35.59
47785;BME280;35233;55.686;37.848;2023-02-22T01:18:46;98536.38;;;4.09;34.75
47785;BME280;35233;55.686;37.848;2023-02-22T01:21:11;98549.50;;;4.08;34.88
47785;BME280;35233;55.686;37.848;2023-02-22T01:23:37;98542.53;;;4.07;34.61
47785;BME280;35233;55.686;37.848;2023-02-22T01:26:03;98536.56;;;4.00;35.14
47785;BME280;35233;55.686;37.848;2023-02-22T01:28:31;98557.34;;;4.08;34.64
47785;BME280;35233;55.686;37.848;2023-02-22T01:30:56;98549.63;;;4.02;35.15
47785;BME280;35233;55.686;37.848;2023-02-22T01:33:22;98559.94;;;4.08;35.36
47785;BME280;35233;55.686;37.848;2023-02-22T01:35:48;98561.06;;;3.96;35.07
47785;BME280;35233;55.686;37.848;2023-02-22T01:38:15;98557.47;;;4.00;34.83
47785;BME280;35233;55.686;37.848;2023-02-22T01:40:43;98567.06;;;4.00;34.80
47785;BME280;35233;55.686;37.848;2023-02-22T01:43:29;98568.06;;;3.94;35.34
47785;BME280;35233;55.686;37.848;2023-02-22T01:46:05;98569.00;;;3.90;35.20
47785;BME280;35233;55.686;37.848;2023-02-22T01:51:26;98579.47;;;3.89;34.91
47785;BME280;35233;55.686;37.848;2023-02-22T01:54:00;98569.88;;;3.89;34.41
47785;BME280;35233;55.686;37.848;2023-02-22T01:56:28;98589.13;;;3.85;34.99
47785;BME280;35233;55.686;37.848;2023-02-22T01:59:02;98581.41;;;3.79;34.27
47785;BME280;35233;55.686;37.848;2023-02-22T02:01:28;98591.06;;;3.75;34.58
47785;BME280;35233;55.686;37.848;2023-02-22T02:03:57;98591.81;;;3.82;34.63
47785;BME280;35233;55.686;37.848;2023-02-22T02:06:25;98589.34;;;3.73;35.04
47785;BME280;35233;55.686;37.848;2023-02-22T02:08:59;98594.59;;;3.73;34.64
47785;BME280;35233;55.686;37.848;2023-02-22T02:11:27;98587.56;;;3.75;34.35
47785;BME280;35233;55.686;37.848;2023-02-22T02:13:55;98605.84;;;3.75;34.33
47785;BME280;35233;55.686;37.848;2023-02-22T02:16:26;98593.06;;;3.59;34.59
47785;BME280;35233;55.686;37.848;2023-02-22T02:18:56;98608.69;;;3.62;34.33
47785;BME280;35233;55.686;37.848;2023-02-22T02:27:23;98609.63;;;3.58;34.22
47785;BME280;35233;55.686;37.848;2023-02-22T02:29:56;98619.97;;;3.63;34.66
47785;BME280;35233;55.686;37.848;2023-02-22T02:32:26;98622.63;;;3.61;34.12
47785;BME280;35233;55.686;37.848;2023-02-22T02:35:59;98624.25;;;3.69;34.23
47785;BME280;35233;55.686;37.848;2023-02-22T02:38:00;98629.69;;;3.55;33.91
47785;BME280;35233;55.686;37.848;2023-02-22T02:40:43;98631.50;;;3.51;34.10
47785;BME280;35233;55.686;37.848;2023-02-22T02:43:16;98629.72;;;3.53;34.47
47785;BME280;35233;55.686;37.848;2023-02-22T02:45:50;98636.66;;;3.54;33.92
47785;BME280;35233;55.686;37.848;2023-02-22T02:48:22;98644.53;;;3.51;33.76
47785;BME280;35233;55.686;37.848;2023-02-22T02:50:50;98647.25;;;3.45;33.93
47785;BME280;35233;55.686;37.848;2023-02-22T02:53:20;98647.34;;;3.39;34.30
47785;BME280;35233;55.686;37.848;2023-02-22T02:55:46;98656.94;;;3.37;34.50
47785;BME280;35233;55.686;37.848;2023-02-22T02:58:22;98655.19;;;3.40;33.63
47785;BME280;35233;55.686;37.848;2023-02-22T03:00:51;98657.78;;;3.40;33.81
47785;BME280;35233;55.686;37.848;2023-02-22T03:08:31;98652.56;;;3.39;33.72
47785;BME280;35233;55.686;37.848;2023-02-22T03:11:05;98654.38;;;3.34;34.34
47785;BME280;35233;55.686;37.848;2023-02-22T03:19:11;98664.03;;;3.30;34.56
47785;BME280;35233;55.686;37.848;2023-02-22T03:27:03;98678.72;;;3.37;34.27
47785;BME280;35233;55.686;37.848;2023-02-22T03:29:38;98688.34;;;3.32;34.25
47785;BME280;35233;55.686;37.848;2023-02-22T03:32:12;98690.94;;;3.34;34.64
47785;BME280;35233;55.686;37.848;2023-02-22T03:34:47;98688.41;;;3.28;34.45
47785;BME280;35233;55.686;37.848;2023-02-22T03:37:22;98702.22;;;3.36;33.86
47785;BME280;35233;55.686;37.848;2023-02-22T03:39:52;98711.00;;;3.30;34.05
47785;BME280;35233;55.686;37.848;2023-02-22T03:42:28;98712.81;;;3.25;33.88
47785;BME280;35233;55.686;37.848;2023-02-22T03:44:57;98708.44;;;3.26;34.39
47785;BME280;35233;55.686;37.848;2023-02-22T03:47:45;98717.13;;;3.28;34.56
47785;BME280;35233;55.686;37.848;2023-02-22T03:50:20;98723.13;;;3.34;34.46
47785;BME280;35233;55.686;37.848;2023-02-22T03:52:47;98722.34;;;3.29;34.23
47785;BME280;35233;55.686;37.848;2023-02-22T03:55:13;98723.25;;;3.25;33.77
47785;BME280;35233;55.686;37.848;2023-02-22T03:57:46;98725.94;;;3.21;34.11
47785;BME280;35233;55.686;37.848;2023-02-22T04:00:19;98727.53;;;3.31;33.63
47785;BME280;35233;55.686;37.848;2023-02-22T04:02:45;98728.47;;;3.25;33.80
47785;BME280;35233;55.686;37.848;2023-02-22T04:05:11;98731.94;;;3.26;34.15
47785;BME280;35233;55.686;37.848;2023-02-22T04:07:39;98734.59;;;3.23;33.99
47785;BME280;35233;55.686;37.848;2023-02-22T04:10:05;98720.84;;;3.08;33.78
47785;BME280;35233;55.686;37.848;2023-02-22T04:12:33;98740.78;;;3.15;34.08
47785;BME280;35233;55.686;37.848;2023-02-22T04:14:59;98722.56;;;3.12;34.03
47785;BME280;35233;55.686;37.848;2023-02-22T04:17:24;98683.81;;;2.83;34.13
47785;BME280;35233;55.686;37.848;2023-02-22T04:19:50;98743.47;;;3.08;34.07
47785;BME280;35233;55.686;37.848;2023-02-22T04:22:16;98747.00;;;3.05;33.92
47785;BME280;35233;55.686;37.848;2023-02-22T04:24:42;98749.59;;;3.05;33.31
47785;BME280;35233;55.686;37.848;2023-02-22T04:27:07;98753.03;;;3.12;33.99
47785;BME280;35233;55.686;37.848;2023-02-22T04:29:32;98744.34;;;3.08;33.26
47785;BME280;35233;55.686;37.848;2023-02-22T04:31:58;98756.53;;;3.09;33.42
47785;BME280;35233;55.686;37.848;2023-02-22T04:34:23;98749.69;;;2.99;33.30
47785;BME280;35233;55.686;37.848;2023-02-22T04:36:49;98763.50;;;3.09;33.78
47785;BME280;35233;55.686;37.848;2023-02-22T04:39:14;98766.22;;;2.98;33.34
47785;BME280;35233;55.686;37.848;2023-02-22T04:41:40;98775.88;;;2.90;33.90
47785;BME280;35233;55.686;37.848;2023-02-22T04:44:05;98777.56;;;2.95;33.25
47785;BME280;35233;55.686;37.848;2023-02-22T04:46:31;98767.09;;;2.99;33.02
47785;BME280;35233;55.686;37.848;2023-02-22T04:48:56;98784.56;;;2.90;33.00
47785;BME280;35233;55.686;37.848;2023-02-22T04:51:23;98786.25;;;2.96;33.03
47785;BME280;35233;55.686;37.848;2023-02-22T04:53:48;98782.00;;;2.87;33.27
47785;BME280;35233;55.686;37.848;2023-02-22T04:56:16;98785.47;;;2.91;33.47
47785;BME280;35233;55.686;37.848;2023-02-22T04:58:42;98786.25;;;2.98;33.64
47785;BME280;35233;55.686;37.848;2023-02-22T05:01:08;98787.09;;;2.97;33.38
47785;BME280;35233;55.686;37.848;2023-02-22T05:03:36;98799.34;;;2.90;33.14
47785;BME280;35233;55.686;37.848;2023-02-22T05:06:02;98803.69;;;2.92;33.07
47785;BME280;35233;55.686;37.848;2023-02-22T05:08:27;98805.41;;;2.95;33.14
47785;BME280;35233;55.686;37.848;2023-02-22T05:10:53;98797.56;;;2.95;33.16
47785;BME280;35233;55.686;37.848;2023-02-22T05:13:19;98784.56;;;2.90;33.55
47785;BME280;35233;55.686;37.848;2023-02-22T05:15:44;98806.13;;;3.06;33.44
47785;BME280;35233;55.686;37.848;2023-02-22T05:18:10;98804.47;;;2.99;33.14
47785;BME280;35233;55.686;37.848;2023-02-22T05:20:35;98813.16;;;3.01;33.36
47785;BME280;35233;55.686;37.848;2023-02-22T05:23:02;98804.47;;;3.01;32.74
47785;BME280;35233;55.686;37.848;2023-02-22T05:25:27;98807.03;;;3.04;33.34
47785;BME280;35233;55.686;37.848;2023-02-22T05:27:55;98814.75;;;3.13;33.14
47785;BME280;35233;55.686;37.848;2023-02-22T05:30:24;98803.41;;;3.14;33.18
47785;BME280;35233;55.686;37.848;2023-02-22T05:32:51;98808.75;;;3.05;33.23
47785;BME280;35233;55.686;37.848;2023-02-22T05:35:18;98819.97;;;3.14;32.67
47785;BME280;35233;55.686;37.848;2023-02-22T05:37:44;98823.44;;;3.13;32.87
47785;BME280;35233;55.686;37.848;2023-02-22T05:40:10;98834.72;;;3.15;33.22
47785;BME280;35233;55.686;37.848;2023-02-22T05:42:35;98838.06;;;3.28;33.22
47785;BME280;35233;55.686;37.848;2023-02-22T05:45:01;98829.41;;;3.26;33.81
47785;BME280;35233;55.686;37.848;2023-02-22T05:47:28;98835.34;;;3.36;34.32
47785;BME280;35233;55.686;37.848;2023-02-22T05:49:53;98837.00;;;3.45;34.57
47785;BME280;35233;55.686;37.848;2023-02-22T05:52:20;98831.66;;;3.54;33.91
47785;BME280;35233;55.686;37.848;2023-02-22T05:54:45;98834.22;;;3.57;33.68
47785;BME280;35233;55.686;37.848;2023-02-22T05:57:11;98837.84;;;3.45;34.48
47785;BME280;35233;55.686;37.848;2023-02-22T05:59:36;98836.19;;;3.39;34.32
47785;BME280;35233;55.686;37.848;2023-02-22T06:02:02;98847.34;;;3.52;34.61
47785;BME280;35233;55.686;37.848;2023-02-22T06:04:27;98840.34;;;3.54;34.05
47785;BME280;35233;55.686;37.848;2023-02-22T06:06:53;98847.28;;;3.57;34.34
47785;BME280;35233;55.686;37.848;2023-02-22T06:09:18;98851.50;;;3.67;34.07
47785;BME280;35233;55.686;37.848;2023-02-22T06:11:44;98850.84;;;5.59;43.90
47785;BME280;35233;55.686;37.848;2023-02-22T06:14:09;98840.38;;;9.03;38.82
47785;BME280;35233;55.686;37.848;2023-02-22T06:16:35;98837.44;;;10.07;35.59
47785;BME280;35233;55.686;37.848;2023-02-22T06:19:00;98842.34;;;10.16;34.07
47785;BME280;35233;55.686;37.848;2023-02-22T06:21:26;98838.59;;;10.22;32.83
47785;BME280;35233;55.686;37.848;2023-02-22T06:23:52;98839.25;;;10.50;31.72
47785;BME280;35233;55.686;37.848;2023-02-22T06:26:18;98834.03;;;10.69;30.89
47785;BME280;35233;55.686;37.848;2023-02-22T06:28:45;98827.53;;;10.98;30.26
47785;BME280;35233;55.686;37.848;2023-02-22T06:31:11;98844.44;;;11.35;29.54
47785;BME280;35233;55.686;37.848;2023-02-22T06:33:36;98888.41;;;11.56;28.50
47785;BME280;35233;55.686;37.848;2023-02-22T06:36:02;98857.09;;;11.66;28.66
47785;BME280;35233;55.686;37.848;2023-02-22T06:38:28;98853.44;;;11.89;29.04
47785;BME280;35233;55.686;37.848;2023-02-22T06:40:53;98855.09;;;11.92;28.53
47785;BME280;35233;55.686;37.848;2023-02-22T06:43:22;98857.09;;;12.06;27.79
47785;BME280;35233;55.686;37.848;2023-02-22T06:45:49;98852.47;;;12.11;27.52
47785;BME280;35233;55.686;37.848;2023-02-22T06:48:16;98863.31;;;12.23;27.18
47785;BME280;35233;55.686;37.848;2023-02-22T06:50:41;98866.75;;;12.26;26.88
47785;BME280;35233;55.686;37.848;2023-02-22T06:53:07;98862.25;;;12.28;26.65
47785;BME280;35233;55.686;37.848;2023-02-22T06:55:34;98867.59;;;12.45;26.56
47785;BME280;35233;55.686;37.848;2023-02-22T06:58:01;98869.78;;;12.54;25.82
47785;BME280;35233;55.686;37.848;2023-02-22T07:00:28;98871.97;;;12.63;25.76
47785;BME280;35233;55.686;37.848;2023-02-22T07:02:55;98868.94;;;12.71;25.51
47785;BME280;35233;55.686;37.848;2023-02-22T07:05:22;98870.59;;;12.91;25.17
47785;BME280;35233;55.686;37.848;2023-02-22T07:07:49;98875.59;;;12.97;24.81
47785;BME280;35233;55.686;37.848;2023-02-22T07:12:42;98866.03;;;13.12;24.65
47785;BME280;35233;55.686;37.848;2023-02-22T07:15:07;98878.00;;;13.19;24.55
47785;BME280;35233;55.686;37.848;2023-02-22T07:17:33;98882.31;;;13.22;24.31
47785;BME280;35233;55.686;37.848;2023-02-22T07:19:58;98884.81;;;13.42;24.13
47785;BME280;35233;55.686;37.848;2023-02-22T07:22:24;98879.34;;;13.45;24.02
47785;BME280;35233;55.686;37.848;2023-02-22T07:24:49;98880.91;;;13.49;23.89
47785;BME280;35233;55.686;37.848;2023-02-22T07:27:15;98891.56;;;13.65;23.86
47785;BME280;35233;55.686;37.848;2023-02-22T07:29:42;98895.94;;;13.66;23.86
47785;BME280;35233;55.686;37.848;2023-02-22T07:32:08;98893.03;;;13.71;23.71
47785;BME280;35233;55.686;37.848;2023-02-22T07:34:34;98904.72;;;13.84;23.46
47785;BME280;35233;55.686;37.848;2023-02-22T07:36:59;98886.06;;;14.01;24.48
47785;BME280;35233;55.686;37.848;2023-02-22T07:39:25;98893.84;;;14.54;26.16
47785;BME280;35233;55.686;37.848;2023-02-22T07:41:51;98903.66;;;14.83;26.33
47785;BME280;35233;55.686;37.848;2023-02-22T07:44:17;98901.81;;;15.00;26.31
47785;BME280;35233;55.686;37.848;2023-02-22T07:46:46;98901.91;;;15.28;25.78
47785;BME280;35233;55.686;37.848;2023-02-22T07:49:13;98912.19;;;15.34;25.82
47785;BME280;35233;55.686;37.848;2023-02-22T07:51:38;98901.97;;;15.57;25.54
47785;BME280;35233;55.686;37.848;2023-02-22T07:54:04;98905.88;;;15.66;25.63
47785;BME280;35233;55.686;37.848;2023-02-22T07:56:29;98912.09;;;15.80;25.45
47785;BME280;35233;55.686;37.848;2023-02-22T07:58:55;98912.31;;;15.92;24.88
47785;BME280;35233;55.686;37.848;2023-02-22T08:01:20;98920.19;;;15.93;24.97
47785;BME280;35233;55.686;37.848;2023-02-22T08:03:46;98912.78;;;16.13;24.93
47785;BME280;35233;55.686;37.848;2023-02-22T08:06:12;98914.75;;;16.23;24.81
47785;BME280;35233;55.686;37.848;2023-02-22T08:08:37;98906.56;;;16.26;24.59
47785;BME280;35233;55.686;37.848;2023-02-22T08:11:03;98910.25;;;16.38;24.44
47785;BME280;35233;55.686;37.848;2023-02-22T08:13:29;98915.25;;;16.57;24.43
47785;BME280;35233;55.686;37.848;2023-02-22T08:15:55;98915.78;;;14.57;24.62
47785;BME280;35233;55.686;37.848;2023-02-22T08:18:21;98917.56;;;12.89;25.68
47785;BME280;35233;55.686;37.848;2023-02-22T08:20:48;98931.50;;;11.99;26.45
47785;BME280;35233;55.686;37.848;2023-02-22T08:23:16;98932.22;;;11.43;26.36
47785;BME280;35233;55.686;37.848;2023-02-22T08:25:42;98951.22;;;11.10;26.39
47785;BME280;35233;55.686;37.848;2023-02-22T08:28:12;98954.31;;;10.78;26.76
47785;BME280;35233;55.686;37.848;2023-02-22T08:30:39;98959.16;;;10.45;26.47
47785;BME280;35233;55.686;37.848;2023-02-22T08:33:08;98971.28;;;10.27;26.62
47785;BME280;35233;55.686;37.848;2023-02-22T08:35:35;98959.72;;;10.06;26.78
47785;BME280;35233;55.686;37.848;2023-02-22T08:38:04;98972.78;;;9.85;27.17
47785;BME280;35233;55.686;37.848;2023-02-22T08:40:35;98976.56;;;9.78;27.15
47785;BME280;35233;55.686;37.848;2023-02-22T08:43:01;98964.25;;;9.53;27.45
47785;BME280;35233;55.686;37.848;2023-02-22T08:45:27;98976.03;;;9.43;27.58
47785;BME280;35233;55.686;37.848;2023-02-22T08:47:53;98989.53;;;9.34;27.30
47785;BME280;35233;55.686;37.848;2023-02-22T08:50:25;98984.53;;;9.25;27.29
47785;BME280;35233;55.686;37.848;2023-02-22T08:52:52;98994.09;;;9.02;27.65
47785;BME280;35233;55.686;37.848;2023-02-22T08:55:22;98990.28;;;8.84;27.94
47785;BME280;35233;55.686;37.848;2023-02-22T08:57:48;98977.25;;;8.80;27.71
47785;BME280;35233;55.686;37.848;2023-02-22T09:00:16;98989.03;;;8.68;27.70
47785;BME280;35233;55.686;37.848;2023-02-22T09:02:42;98989.44;;;8.54;27.95
47785;BME280;35233;55.686;37.848;2023-02-22T09:05:08;98997.50;;;8.50;27.88
47785;BME280;35233;55.686;37.848;2023-02-22T09:07:33;98997.91;;;8.34;28.29
47785;BME280;35233;55.686;37.848;2023-02-22T09:09:59;99002.22;;;8.37;28.27
47785;BME280;35233;55.686;37.848;2023-02-22T09:12:26;99002.66;;;8.23;28.36
47785;BME280;35233;55.686;37.848;2023-02-22T09:14:51;99010.56;;;8.22;28.63
47785;BME280;35233;55.686;37.848;2023-02-22T09:17:17;99019.41;;;8.19;28.82
47785;BME280;35233;55.686;37.848;2023-02-22T09:19:42;99017.81;;;8.13;28.74
47785;BME280;35233;55.686;37.848;2023-02-22T09:22:09;99013.59;;;8.08;28.74
47785;BME280;35233;55.686;37.848;2023-02-22T09:24:35;99026.16;;;7.98;28.77
47785;BME280;35233;55.686;37.848;2023-02-22T09:27:01;99017.50;;;7.94;28.69
47785;BME280;35233;55.686;37.848;2023-02-22T09:29:29;99014.13;;;7.89;28.85
47785;BME280;35233;55.686;37.848;2023-02-22T09:31:55;99018.47;;;7.90;29.07
47785;BME280;35233;55.686;37.848;2023-02-22T09:34:22;99013.56;;;7.78;28.94
47785;BME280;35233;55.686;37.848;2023-02-22T09:36:54;99004.81;;;7.78;28.94
47785;BME280;35233;55.686;37.848;2023-02-22T09:39:23;99010.22;;;7.71;29.09
47785;BME280;35233;55.686;37.848;2023-02-22T09:47:12;99014.25;;;7.52;29.23
47785;BME280;35233;55.686;37.848;2023-02-22T09:49:47;99005.59;;;7.47;29.36
47785;BME280;35233;55.686;37.848;2023-02-22T09:55:01;99017.88;;;7.48;29.42
47785;BME280;35233;55.686;37.848;2023-02-22T09:57:37;99020.59;;;7.43;29.43
47785;BME280;35233;55.686;37.848;2023-02-22T10:00:19;99018.72;;;7.48;29.45
47785;BME280;35233;55.686;37.848;2023-02-22T10:03:14;99018.81;;;7.45;29.42
47785;BME280;35233;55.686;37.848;2023-02-22T10:05:42;99025.84;;;7.43;29.36
47785;BME280;35233;55.686;37.848;2023-02-22T10:08:13;99024.00;;;7.47;29.46
47785;BME280;35233;55.686;37.848;2023-02-22T10:10:42;99004.59;;;7.18;29.59
47785;BME280;35233;55.686;37.848;2023-02-22T10:13:23;99024.38;;;7.33;29.64
47785;BME280;35233;55.686;37.848;2023-02-22T10:16:18;99020.94;;;7.30;29.86
47785;BME280;35233;55.686;37.848;2023-02-22T10:21:38;99038.59;;;7.24;29.88
47785;BME280;35233;55.686;37.848;2023-02-22T10:26:54;99043.97;;;7.18;30.30
47785;BME280;35233;55.686;37.848;2023-02-22T10:32:02;99042.31;;;7.16;29.94
47785;BME280;35233;55.686;37.848;2023-02-22T10:34:32;99044.13;;;7.12;29.81
47785;BME280;35233;55.686;37.848;2023-02-22T10:37:24;99040.78;;;7.07;30.42
47785;BME280;35233;55.686;37.848;2023-02-22T10:39:57;99035.69;;;6.99;30.38
47785;BME280;35233;55.686;37.848;2023-02-22T10:42:29;99051.41;;;7.01;29.95
47785;BME280;35233;55.686;37.848;2023-02-22T10:44:55;99031.44;;;6.94;30.28
47785;BME280;35233;55.686;37.848;2023-02-22T10:47:20;99051.47;;;6.98;29.89
47785;BME280;35233;55.686;37.848;2023-02-22T10:49:51;99047.38;;;6.86;30.82
47785;BME280;35233;55.686;37.848;2023-02-22T10:52:28;99061.38;;;6.87;30.56
47785;BME280;35233;55.686;37.848;2023-02-22T10:54:56;99071.88;;;6.87;30.23
47785;BME280;35233;55.686;37.848;2023-02-22T10:57:28;99059.66;;;6.86;30.54
47785;BME280;35233;55.686;37.848;2023-02-22T10:59:56;99066.88;;;6.76;29.59
47785;BME280;35233;55.686;37.848;2023-02-22T11:02:33;99066.88;;;6.74;30.00
47785;BME280;35233;55.686;37.848;2023-02-22T11:05:01;99065.91;;;6.80;30.26
47785;BME280;35233;55.686;37.848;2023-02-22T11:07:32;99076.66;;;6.69;30.10
47785;BME280;35233;55.686;37.848;2023-02-22T11:10:01;99046.38;;;6.53;29.50
47785;BME280;35233;55.686;37.848;2023-02-22T11:12:39;99071.50;;;6.63;29.59
47785;BME280;35233;55.686;37.848;2023-02-22T11:17:42;99053.47;;;6.48;29.87
47785;BME280;35233;55.686;37.848;2023-02-22T11:20:23;99084.63;;;6.65;29.88
47785;BME280;35233;55.686;37.848;2023-02-22T11:22:57;99081.25;;;6.58;30.22
47785;BME280;35233;55.686;37.848;2023-02-22T11:25:33;99069.06;;;6.55;29.94
47785;BME280;35233;55.686;37.848;2023-02-22T11:28:11;99070.00;;;6.51;29.95
47785;BME280;35233;55.686;37.848;2023-02-22T11:30:41;99089.28;;;6.52;30.60
47785;BME280;35233;55.686;37.848;2023-02-22T11:35:52;99088.22;;;6.59;30.28
47785;BME280;35233;55.686;37.848;2023-02-22T11:38:28;99093.53;;;6.56;29.87
47785;BME280;35233;55.686;37.848;2023-02-22T11:41:19;99084.03;;;6.52;31.05
47785;BME280;35233;55.686;37.848;2023-02-22T11:43:50;99081.47;;;6.47;30.72
47785;BME280;35233;55.686;37.848;2023-02-22T11:46:21;99085.88;;;6.45;30.16
47785;BME280;35233;55.686;37.848;2023-02-22T11:48:57;99096.44;;;6.42;30.59
47785;BME280;35233;55.686;37.848;2023-02-22T12:03:04;99111.56;;;6.29;30.80
47785;BME280;35233;55.686;37.848;2023-02-22T12:05:23;99119.34;;;6.34;30.54
47785;BME280;35233;55.686;37.848;2023-02-22T12:08:03;99124.59;;;6.34;31.09
47785;BME280;35233;55.686;37.848;2023-02-22T12:13:46;99133.75;;;6.13;30.65
47785;BME280;35233;55.686;37.848;2023-02-22T12:16:38;99129.34;;;6.15;30.21
47785;BME280;35233;55.686;37.848;2023-02-22T12:19:29;99121.44;;;6.17;30.76
47785;BME280;35233;55.686;37.848;2023-02-22T12:22:00;99121.41;;;6.18;31.14
47785;BME280;35233;55.686;37.848;2023-02-22T12:24:36;99135.44;;;6.17;30.76
47785;BME280;35233;55.686;37.848;2023-02-22T12:27:07;99141.66;;;6.10;30.59
47785;BME280;35233;55.686;37.848;2023-02-22T12:30:04;99139.28;;;5.98;30.63
47785;BME280;35233;55.686;37.848;2023-02-22T12:32:52;99154.28;;;5.88;30.18
47785;BME280;35233;55.686;37.848;2023-02-22T12:35:24;99150.69;;;5.92;30.39
47785;BME280;35233;55.686;37.848;2023-02-22T12:38:00;99149.94;;;5.85;30.90
47785;BME280;35233;55.686;37.848;2023-02-22T12:43:13;99158.63;;;5.87;30.98
47785;BME280;35233;55.686;37.848;2023-02-22T12:51:31;99161.28;;;5.86;31.26
47785;BME280;35233;55.686;37.848;2023-02-22T12:54:09;99165.75;;;5.81;31.21
47785;BME280;35233;55.686;37.848;2023-02-22T12:57:04;99169.41;;;5.71;31.18
47785;BME280;35233;55.686;37.848;2023-02-22T12:59:32;99166.00;;;5.64;31.44
47785;BME280;35233;55.686;37.848;2023-02-22T13:02:11;99178.25;;;5.63;31.59
47785;BME280;35233;55.686;37.848;2023-02-22T13:04:37;99173.91;;;5.62;31.78
47785;BME280;35233;55.686;37.848;2023-02-22T13:10:10;99193.16;;;5.60;31.37
47785;BME280;35233;55.686;37.848;2023-02-22T13:17:57;99186.16;;;5.62;31.40
47785;BME280;35233;55.686;37.848;2023-02-22T13:20:33;99191.50;;;5.54;31.62
47785;BME280;35233;55.686;37.848;2023-02-22T13:26:26;99203.78;;;5.49;31.62
47785;BME280;35233;55.686;37.848;2023-02-22T13:28:55;99199.34;;;5.54;31.68
47785;BME280;35233;55.686;37.848;2023-02-22T13:40:45;99206.22;;;9.16;30.10
47785;BME280;35233;55.686;37.848;2023-02-22T13:43:24;99212.19;;;8.60;29.95
47785;BME280;35233;55.686;37.848;2023-02-22T13:46:15;99214.50;;;8.39;29.86
47785;BME280;35233;55.686;37.848;2023-02-22T13:49:07;99223.97;;;8.47;28.78
47785;BME280;35233;55.686;37.848;2023-02-22T13:51:51;99223.91;;;8.48;28.45
47785;BME280;35233;55.686;37.848;2023-02-22T13:56:45;99214.31;;;8.47;28.35
47785;BME280;35233;55.686;37.848;2023-02-22T13:59:31;99220.00;;;8.63;28.41
47785;BME280;35233;55.686;37.848;2023-02-22T14:01:58;99227.88;;;8.65;28.04
47785;BME280;35233;55.686;37.848;2023-02-22T14:09:53;99222.75;;;8.91;28.28
47785;BME280;35233;55.686;37.848;2023-02-22T14:15:14;99232.50;;;8.88;27.96
47785;BME280;35233;55.686;37.848;2023-02-22T14:22:39;99211.09;;;8.98;28.03
47785;BME280;35233;55.686;37.848;2023-02-22T14:27:53;99226.69;;;9.07;27.96
47785;BME280;35233;55.686;37.848;2023-02-22T14:30:27;99234.44;;;9.12;28.01
47785;BME280;35233;55.686;37.848;2023-02-22T14:32:55;99233.44;;;9.16;28.09
47785;BME280;35233;55.686;37.848;2023-02-22T14:35:22;99227.44;;;9.11;28.05
47785;BME280;35233;55.686;37.848;2023-02-22T14:37:54;99237.13;;;9.11;27.67
47785;BME280;35233;55.686;37.848;2023-02-22T14:40:30;99225.75;;;9.09;27.86
47785;BME280;35233;55.686;37.848;2023-02-22T14:43:01;99239.78;;;9.09;28.17
47785;BME280;35233;55.686;37.848;2023-02-22T14:45:31;99251.34;;;9.05;27.86
47785;BME280;35233;55.686;37.848;2023-02-22T14:53:18;99252.97;;;9.09;28.04
47785;BME280;35233;55.686;37.848;2023-02-22T14:56:01;99249.56;;;9.05;28.11
47785;BME280;35233;55.686;37.848;2023-02-22T14:58:47;99254.69;;;9.10;27.86
47785;BME280;35233;55.686;37.848;2023-02-22T15:01:33;99260.88;;;9.09;27.40
47785;BME280;35233;55.686;37.848;2023-02-22T15:04:22;99264.53;;;9.03;27.87
47785;BME280;35233;55.686;37.848;2023-02-22T15:06:50;99268.78;;;9.09;27.94